createdAt,value
2017-03-14T00:00:01.681Z,5.71
2017-03-14T00:00:42.164Z,5.75
2017-03-14T00:01:22.634Z,5.72
2017-03-14T00:02:03.096Z,5.8
2017-03-14T00:02:43.583Z,5.8
2017-03-14T00:03:24.033Z,5.71
2017-03-14T00:04:04.491Z,5.65
2017-03-14T00:04:45.028Z,5.83
2017-03-14T00:05:25.486Z,5.72
2017-03-14T00:06:05.972Z,5.73
2017-03-14T00:06:46.446Z,5.76
2017-03-14T00:07:26.912Z,5.72
2017-03-14T00:08:07.389Z,5.73
2017-03-14T00:08:47.869Z,5.71
2017-03-14T00:09:28.362Z,5.72
2017-03-14T00:10:08.845Z,5.76
2017-03-14T00:10:49.334Z,5.82
2017-03-14T00:11:29.755Z,5.82
2017-03-14T00:12:10.237Z,5.79
2017-03-14T00:12:50.776Z,5.76
2017-03-14T00:13:31.198Z,5.69
2017-03-14T00:14:11.674Z,5.79
2017-03-14T00:14:52.177Z,5.82
2017-03-14T00:15:32.623Z,5.72
2017-03-14T00:16:13.107Z,5.79
2017-03-14T00:16:53.598Z,5.71
2017-03-14T00:17:34.102Z,5.75
2017-03-14T00:18:14.562Z,5.8
2017-03-14T00:18:55.026Z,5.72
2017-03-14T00:19:35.505Z,5.79
2017-03-14T00:20:15.983Z,5.83
2017-03-14T00:20:56.469Z,5.83
2017-03-14T00:21:36.946Z,5.8
2017-03-14T00:22:17.464Z,5.75
2017-03-14T00:22:57.938Z,5.71
2017-03-14T00:23:38.415Z,5.79
2017-03-14T00:24:18.893Z,5.84
2017-03-14T00:24:59.420Z,5.76
2017-03-14T00:25:39.825Z,5.86
2017-03-14T00:26:20.319Z,5.8
2017-03-14T00:27:00.795Z,5.86
2017-03-14T00:27:41.255Z,5.89
2017-03-14T00:28:21.733Z,5.83
2017-03-14T00:29:02.230Z,5.86
2017-03-14T00:29:42.686Z,5.76
2017-03-14T00:30:23.149Z,5.87
2017-03-14T00:31:03.682Z,5.8
2017-03-14T00:31:44.141Z,5.87
2017-03-14T00:32:24.630Z,5.82
2017-03-14T00:33:05.119Z,5.82
2017-03-14T00:33:45.610Z,5.86
2017-03-14T00:34:26.056Z,5.83
2017-03-14T00:35:06.549Z,5.72
2017-03-14T00:35:47.027Z,5.82
2017-03-14T00:36:27.484Z,5.82
2017-03-14T00:37:07.980Z,5.73
2017-03-14T00:37:48.429Z,5.73
2017-03-14T00:38:28.939Z,5.72
2017-03-14T00:39:09.412Z,5.79
2017-03-14T00:39:49.884Z,5.72
2017-03-14T00:40:30.336Z,5.79
2017-03-14T00:41:10.818Z,5.71
2017-03-14T00:41:51.298Z,5.73
2017-03-14T00:42:31.910Z,5.75
2017-03-14T00:43:12.391Z,5.75
2017-03-14T00:43:52.876Z,5.73
2017-03-14T00:44:33.361Z,5.73
2017-03-14T00:45:13.839Z,5.73
2017-03-14T00:45:54.334Z,5.69
2017-03-14T00:46:34.882Z,5.68
2017-03-14T00:47:17.315Z,5.72
2017-03-14T00:47:57.765Z,5.72
2017-03-14T00:48:38.265Z,5.69
2017-03-14T00:49:18.744Z,5.66
2017-03-14T00:49:59.221Z,5.71
2017-03-14T00:50:39.734Z,5.73
2017-03-14T00:51:20.220Z,5.71
2017-03-14T00:52:00.705Z,5.62
2017-03-14T00:52:41.167Z,5.69
2017-03-14T00:53:21.638Z,5.68
2017-03-14T00:54:02.122Z,5.68
2017-03-14T00:54:42.588Z,5.71
2017-03-14T00:55:23.075Z,5.73
2017-03-14T00:56:03.526Z,5.72
2017-03-14T00:56:44.008Z,5.71
2017-03-14T00:57:24.454Z,5.72
2017-03-14T00:58:04.961Z,5.76
2017-03-14T00:58:45.418Z,5.71
2017-03-14T00:59:25.915Z,5.79
2017-03-14T01:00:06.507Z,5.76
2017-03-14T01:00:46.878Z,5.79
2017-03-14T01:01:27.346Z,5.68
2017-03-14T01:02:07.792Z,5.76
2017-03-14T01:02:48.272Z,5.72
2017-03-14T01:03:28.773Z,5.75
2017-03-14T01:04:09.245Z,5.72
2017-03-14T01:04:49.685Z,5.75
2017-03-14T01:05:30.196Z,5.79
2017-03-14T01:06:10.688Z,5.69
2017-03-14T01:06:51.137Z,5.75
2017-03-14T01:07:31.635Z,5.68
2017-03-14T01:08:12.117Z,5.75
2017-03-14T01:08:52.606Z,5.76
2017-03-14T01:09:33.068Z,5.75
2017-03-14T01:10:13.580Z,5.73
2017-03-14T01:10:54.015Z,5.73
2017-03-14T01:11:34.491Z,5.73
2017-03-14T01:12:14.962Z,5.69
2017-03-14T01:12:55.449Z,5.8
2017-03-14T01:13:35.919Z,5.72
2017-03-14T01:14:16.404Z,5.72
2017-03-14T01:14:56.847Z,5.72
2017-03-14T01:15:37.334Z,5.82
2017-03-14T01:16:17.819Z,5.79
2017-03-14T01:16:58.301Z,5.72
2017-03-14T01:17:38.762Z,5.83
2017-03-14T01:18:19.243Z,5.83
2017-03-14T01:18:59.712Z,5.76
2017-03-14T01:19:40.169Z,5.75
2017-03-14T01:20:20.684Z,5.69
2017-03-14T01:21:01.135Z,5.73
2017-03-14T01:21:41.640Z,5.79
2017-03-14T01:22:22.133Z,5.86
2017-03-14T01:23:02.609Z,5.8
2017-03-14T01:23:43.084Z,5.75
2017-03-14T01:24:23.538Z,5.71
2017-03-14T01:25:04.017Z,5.73
2017-03-14T01:25:44.546Z,5.84
2017-03-14T01:26:25.033Z,5.82
2017-03-14T01:27:05.500Z,5.76
2017-03-14T01:27:46.001Z,5.87
2017-03-14T01:28:26.464Z,5.84
2017-03-14T01:29:06.898Z,5.87
2017-03-14T01:29:47.389Z,5.86
2017-03-14T01:30:27.893Z,5.8
2017-03-14T01:31:08.326Z,5.84
2017-03-14T01:31:48.805Z,5.84
2017-03-14T01:32:29.281Z,5.79
2017-03-14T01:33:09.801Z,5.91
2017-03-14T01:33:50.261Z,5.8
2017-03-14T01:34:30.722Z,5.8
2017-03-14T01:35:11.202Z,5.75
2017-03-14T01:35:51.683Z,5.69
2017-03-14T01:36:32.110Z,5.82
2017-03-14T01:37:12.566Z,5.75
2017-03-14T01:37:53.055Z,5.83
2017-03-14T01:38:33.522Z,5.69
2017-03-14T01:39:13.973Z,5.73
2017-03-14T01:39:54.452Z,5.72
2017-03-14T01:40:34.940Z,5.71
2017-03-14T01:41:15.444Z,5.76
2017-03-14T01:41:55.893Z,5.75
2017-03-14T01:42:36.357Z,5.76
2017-03-14T01:43:16.859Z,5.76
2017-03-14T01:43:57.314Z,5.71
2017-03-14T01:44:37.783Z,5.69
2017-03-14T01:45:18.277Z,5.72
2017-03-14T01:45:58.769Z,5.69
2017-03-14T01:46:39.232Z,5.66
2017-03-14T01:47:19.768Z,5.69
2017-03-14T01:48:00.275Z,5.68
2017-03-14T01:48:40.770Z,5.69
2017-03-14T01:49:21.225Z,5.69
2017-03-14T01:50:01.717Z,5.72
2017-03-14T01:50:42.192Z,5.61
2017-03-14T01:51:22.657Z,5.72
2017-03-14T01:52:03.102Z,5.72
2017-03-14T01:52:43.578Z,5.69
2017-03-14T01:53:24.066Z,5.68
2017-03-14T01:54:04.545Z,5.59
2017-03-14T01:54:45.025Z,5.79
2017-03-14T01:55:25.513Z,5.59
2017-03-14T01:56:06.000Z,5.71
2017-03-14T01:56:46.457Z,5.57
2017-03-14T01:57:26.951Z,5.62
2017-03-14T01:58:07.426Z,5.62
2017-03-14T01:58:47.883Z,5.62
2017-03-14T01:59:28.345Z,5.56
2017-03-14T02:00:08.828Z,5.61
2017-03-14T02:00:49.272Z,5.64
2017-03-14T02:01:29.775Z,5.61
2017-03-14T02:02:10.229Z,5.68
2017-03-14T02:02:50.737Z,5.61
2017-03-14T02:03:31.209Z,5.57
2017-03-14T02:04:11.696Z,5.65
2017-03-14T02:04:52.132Z,5.66
2017-03-14T02:05:32.610Z,5.61
2017-03-14T02:06:13.098Z,5.62
2017-03-14T02:06:53.576Z,5.65
2017-03-14T02:07:34.048Z,5.57
2017-03-14T02:08:14.562Z,5.61
2017-03-14T02:08:54.996Z,5.64
2017-03-14T02:09:35.461Z,5.66
2017-03-14T02:10:15.938Z,5.61
2017-03-14T02:10:56.409Z,5.65
2017-03-14T02:11:36.919Z,5.61
2017-03-14T02:12:17.388Z,5.62
2017-03-14T02:12:57.887Z,5.59
2017-03-14T02:13:38.372Z,5.66
2017-03-14T02:14:18.836Z,5.65
2017-03-14T02:14:59.288Z,5.66
2017-03-14T02:15:39.797Z,5.64
2017-03-14T02:16:20.267Z,5.72
2017-03-14T02:17:00.737Z,5.71
2017-03-14T02:17:41.198Z,5.68
2017-03-14T02:18:21.691Z,5.69
2017-03-14T02:19:02.183Z,5.68
2017-03-14T02:19:42.674Z,5.8
2017-03-14T02:20:23.158Z,5.76
2017-03-14T02:21:03.644Z,5.79
2017-03-14T02:21:44.112Z,5.83
2017-03-14T02:22:24.581Z,5.84
2017-03-14T02:23:05.091Z,5.89
2017-03-14T02:23:45.578Z,5.89
2017-03-14T02:24:26.044Z,5.91
2017-03-14T02:25:06.512Z,5.9
2017-03-14T02:25:47.000Z,5.9
2017-03-14T02:26:27.459Z,5.86
2017-03-14T02:27:07.956Z,5.93
2017-03-14T02:27:48.462Z,5.89
2017-03-14T02:28:28.946Z,5.98
2017-03-14T02:29:09.407Z,5.93
2017-03-14T02:29:49.882Z,5.99
2017-03-14T02:30:30.356Z,5.98
2017-03-14T02:31:10.834Z,6.07
2017-03-14T02:31:51.297Z,5.91
2017-03-14T02:32:31.787Z,6.02
2017-03-14T02:33:12.284Z,6.04
2017-03-14T02:33:52.740Z,6.05
2017-03-14T02:34:33.224Z,6.11
2017-03-14T02:35:13.714Z,6.04
2017-03-14T02:35:54.222Z,6.02
2017-03-14T02:36:34.683Z,6.09
2017-03-14T02:37:15.188Z,6.05
2017-03-14T02:37:55.643Z,6.08
2017-03-14T02:38:36.122Z,6.07
2017-03-14T02:39:16.571Z,6.01
2017-03-14T02:39:57.064Z,6.05
2017-03-14T02:40:37.500Z,6.07
2017-03-14T02:41:17.989Z,6.01
2017-03-14T02:41:58.464Z,6.02
2017-03-14T02:42:38.927Z,6.07
2017-03-14T02:43:19.392Z,6.07
2017-03-14T02:43:59.881Z,6.07
2017-03-14T02:44:40.392Z,5.99
2017-03-14T02:45:20.868Z,6.07
2017-03-14T02:46:01.342Z,5.93
2017-03-14T02:46:41.818Z,6.05
2017-03-14T02:47:22.320Z,5.94
2017-03-14T02:48:02.794Z,5.86
2017-03-14T02:48:43.292Z,6.02
2017-03-14T02:49:23.757Z,5.94
2017-03-14T02:50:04.227Z,5.98
2017-03-14T02:50:44.756Z,5.91
2017-03-14T02:51:25.214Z,5.89
2017-03-14T02:52:05.692Z,5.87
2017-03-14T02:52:46.150Z,5.91
2017-03-14T02:53:26.638Z,5.86
2017-03-14T02:54:07.100Z,5.91
2017-03-14T02:54:47.565Z,5.87
2017-03-14T02:55:28.014Z,5.8
2017-03-14T02:56:08.508Z,5.71
2017-03-14T02:56:48.995Z,5.69
2017-03-14T02:57:29.436Z,5.76
2017-03-14T02:58:09.982Z,5.73
2017-03-14T02:58:50.439Z,5.68
2017-03-14T02:59:30.916Z,5.71
2017-03-14T03:00:11.398Z,5.71
2017-03-14T03:00:51.882Z,5.64
2017-03-14T03:01:32.354Z,5.56
2017-03-14T03:02:12.895Z,5.61
2017-03-14T03:02:53.335Z,5.62
2017-03-14T03:03:33.819Z,5.59
2017-03-14T03:04:14.311Z,5.69
2017-03-14T03:04:54.775Z,5.57
2017-03-14T03:05:35.275Z,5.72
2017-03-14T03:06:15.719Z,5.72
2017-03-14T03:06:56.212Z,5.65
2017-03-14T03:07:36.678Z,5.65
2017-03-14T03:08:17.160Z,5.73
2017-03-14T03:08:57.637Z,5.75
2017-03-14T03:09:38.104Z,5.68
2017-03-14T03:10:18.576Z,5.75
2017-03-14T03:10:59.052Z,5.69
2017-03-14T03:11:39.513Z,5.76
2017-03-14T03:12:20.020Z,5.8
2017-03-14T03:13:00.494Z,5.79
2017-03-14T03:13:40.969Z,5.72
2017-03-14T03:14:21.455Z,5.71
2017-03-14T03:15:01.940Z,5.79
2017-03-14T03:15:42.395Z,5.82
2017-03-14T03:16:22.836Z,5.72
2017-03-14T03:17:03.327Z,5.75
2017-03-14T03:17:43.799Z,5.69
2017-03-14T03:18:24.318Z,5.84
2017-03-14T03:19:04.747Z,5.72
2017-03-14T03:19:45.181Z,5.75
2017-03-14T03:20:25.649Z,5.72
2017-03-14T03:21:06.109Z,5.72
2017-03-14T03:21:46.602Z,5.71
2017-03-14T03:22:27.078Z,5.73
2017-03-14T03:23:07.536Z,5.71
2017-03-14T03:23:48.001Z,5.76
2017-03-14T03:24:28.487Z,5.76
2017-03-14T03:25:08.958Z,5.8
2017-03-14T03:25:49.426Z,5.84
2017-03-14T03:26:29.928Z,5.72
2017-03-14T03:27:10.382Z,5.83
2017-03-14T03:27:50.868Z,5.71
2017-03-14T03:28:31.356Z,5.73
2017-03-14T03:29:11.819Z,5.68
2017-03-14T03:29:52.244Z,5.79
2017-03-14T03:30:32.763Z,5.66
2017-03-14T03:31:13.205Z,5.79
2017-03-14T03:31:53.691Z,5.79
2017-03-14T03:32:34.140Z,5.79
2017-03-14T03:33:14.645Z,5.79
2017-03-14T03:33:55.123Z,5.75
2017-03-14T03:34:35.552Z,5.79
2017-03-14T03:35:16.027Z,5.79
2017-03-14T03:35:56.510Z,5.72
2017-03-14T03:36:37.007Z,5.72
2017-03-14T03:37:17.497Z,5.72
2017-03-14T03:37:57.979Z,5.79
2017-03-14T03:38:38.461Z,5.76
2017-03-14T03:39:18.925Z,5.82
2017-03-14T03:39:59.417Z,5.73
2017-03-14T03:40:39.930Z,5.72
2017-03-14T03:41:20.409Z,5.76
2017-03-14T03:42:00.875Z,5.72
2017-03-14T03:42:41.367Z,5.8
2017-03-14T03:43:21.862Z,5.82
2017-03-14T03:44:02.352Z,5.79
2017-03-14T03:44:42.816Z,5.71
2017-03-14T03:45:23.295Z,5.83
2017-03-14T03:46:03.787Z,5.75
2017-03-14T03:46:44.237Z,5.76
2017-03-14T03:47:24.726Z,5.75
2017-03-14T03:48:05.154Z,5.75
2017-03-14T03:48:45.654Z,5.71
2017-03-14T03:49:26.135Z,5.71
2017-03-14T03:50:06.648Z,5.75
2017-03-14T03:50:47.072Z,5.75
2017-03-14T03:51:27.571Z,5.69
2017-03-14T03:52:08.042Z,5.71
2017-03-14T03:52:48.489Z,5.69
2017-03-14T03:53:28.988Z,5.73
2017-03-14T03:54:09.468Z,5.69
2017-03-14T03:54:49.928Z,5.68
2017-03-14T03:55:30.401Z,5.83
2017-03-14T03:56:10.926Z,5.75
2017-03-14T03:56:51.437Z,5.68
2017-03-14T03:57:31.886Z,5.69
2017-03-14T03:58:12.361Z,5.64
2017-03-14T03:58:52.873Z,5.72
2017-03-14T03:59:33.377Z,5.73
2017-03-14T04:00:13.833Z,5.75
2017-03-14T04:00:54.317Z,5.76
2017-03-14T04:01:34.799Z,5.69
2017-03-14T04:02:15.271Z,5.65
2017-03-14T04:02:55.720Z,5.69
2017-03-14T04:03:36.193Z,5.69
2017-03-14T04:04:16.660Z,5.68
2017-03-14T04:04:57.161Z,5.65
2017-03-14T04:05:37.605Z,5.66
2017-03-14T04:06:18.080Z,5.73
2017-03-14T04:06:58.570Z,5.68
2017-03-14T04:07:39.069Z,5.65
2017-03-14T04:08:19.486Z,5.65
2017-03-14T04:08:59.971Z,5.69
2017-03-14T04:09:40.418Z,5.72
2017-03-14T04:10:20.897Z,5.8
2017-03-14T04:11:01.398Z,5.68
2017-03-14T04:11:41.883Z,5.66
2017-03-14T04:12:22.361Z,5.62
2017-03-14T04:13:02.823Z,5.66
2017-03-14T04:13:43.331Z,5.64
2017-03-14T04:14:23.795Z,5.59
2017-03-14T04:15:04.264Z,5.59
2017-03-14T04:15:44.793Z,5.69
2017-03-14T04:16:25.270Z,5.68
2017-03-14T04:17:05.741Z,5.64
2017-03-14T04:17:46.238Z,5.59
2017-03-14T04:18:26.712Z,5.66
2017-03-14T04:19:07.185Z,5.73
2017-03-14T04:19:47.660Z,5.61
2017-03-14T04:20:28.127Z,5.61
2017-03-14T04:21:08.583Z,5.64
2017-03-14T04:21:49.055Z,5.66
2017-03-14T04:22:29.568Z,5.66
2017-03-14T04:23:10.038Z,5.69
2017-03-14T04:23:50.515Z,5.61
2017-03-14T04:24:30.985Z,5.72
2017-03-14T04:25:11.485Z,5.61
2017-03-14T04:25:51.988Z,5.66
2017-03-14T04:26:32.444Z,5.59
2017-03-14T04:27:12.967Z,5.62
2017-03-14T04:27:53.435Z,5.56
2017-03-14T04:28:33.884Z,5.68
2017-03-14T04:29:14.373Z,5.64
2017-03-14T04:29:54.838Z,5.61
2017-03-14T04:30:35.301Z,5.59
2017-03-14T04:31:15.767Z,5.61
2017-03-14T04:31:56.235Z,5.53
2017-03-14T04:32:36.713Z,5.57
2017-03-14T04:33:17.204Z,5.62
2017-03-14T04:33:57.661Z,5.46
2017-03-14T04:34:38.135Z,5.46
2017-03-14T04:35:18.588Z,5.44
2017-03-14T04:35:59.073Z,5.41
2017-03-14T04:36:39.565Z,5.39
2017-03-14T04:37:20.049Z,5.43
2017-03-14T04:38:00.506Z,5.36
2017-03-14T04:38:40.988Z,5.47
2017-03-14T04:39:21.467Z,5.44
2017-03-14T04:40:01.922Z,5.39
2017-03-14T04:40:42.377Z,5.41
2017-03-14T04:41:22.871Z,5.39
2017-03-14T04:42:03.338Z,5.39
2017-03-14T04:42:43.814Z,5.33
2017-03-14T04:43:24.294Z,5.35
2017-03-14T04:44:04.770Z,5.32
2017-03-14T04:44:45.261Z,5.29
2017-03-14T04:45:25.705Z,5.3
2017-03-14T04:46:06.171Z,5.3
2017-03-14T04:46:46.642Z,5.28
2017-03-14T04:47:27.096Z,5.28
2017-03-14T04:48:07.592Z,5.23
2017-03-14T04:48:48.067Z,5.25
2017-03-14T04:49:28.548Z,5.17
2017-03-14T04:50:09.042Z,5.2
2017-03-14T04:50:49.501Z,5.2
2017-03-14T04:51:29.989Z,5.14
2017-03-14T04:52:10.493Z,5.18
2017-03-14T04:52:50.961Z,5.25
2017-03-14T04:53:31.427Z,5.17
2017-03-14T04:54:11.896Z,5.15
2017-03-14T04:54:52.354Z,5.1
2017-03-14T04:55:32.837Z,5.14
2017-03-14T04:56:13.303Z,5.15
2017-03-14T04:56:53.774Z,5.05
2017-03-14T04:57:34.253Z,5.11
2017-03-14T04:58:14.782Z,5.12
2017-03-14T04:58:55.202Z,5.11
2017-03-14T04:59:35.672Z,5.11
2017-03-14T05:00:16.139Z,5.02
2017-03-14T05:00:56.656Z,5.08
2017-03-14T05:01:37.123Z,5.08
2017-03-14T05:02:17.600Z,5.02
2017-03-14T05:02:58.100Z,5.04
2017-03-14T05:03:38.549Z,5.08
2017-03-14T05:04:19.022Z,5.1
2017-03-14T05:04:59.500Z,5.05
2017-03-14T05:05:39.958Z,5.11
2017-03-14T05:06:20.480Z,5.07
2017-03-14T05:07:00.881Z,5.05
2017-03-14T05:07:41.370Z,5.12
2017-03-14T05:08:21.861Z,5.05
2017-03-14T05:09:02.342Z,5
2017-03-14T05:09:42.790Z,5.07
2017-03-14T05:10:23.270Z,5.11
2017-03-14T05:11:03.758Z,5.1
2017-03-14T05:11:44.215Z,5.05
2017-03-14T05:12:24.664Z,5.14
2017-03-14T05:13:05.159Z,5.1
2017-03-14T05:13:45.677Z,5.1
2017-03-14T05:14:26.125Z,5.07
2017-03-14T05:15:06.623Z,5.1
2017-03-14T05:15:47.093Z,5.08
2017-03-14T05:16:27.587Z,5.1
2017-03-14T05:17:08.067Z,5.08
2017-03-14T05:17:48.562Z,5.02
2017-03-14T05:18:29.010Z,5.07
2017-03-14T05:19:09.513Z,5.11
2017-03-14T05:19:50.340Z,5.07
2017-03-14T05:20:30.783Z,5.07
2017-03-14T05:21:11.297Z,5.08
2017-03-14T05:21:58.676Z,4.97
2017-03-14T05:22:39.193Z,5
2017-03-14T05:23:19.650Z,5.07
2017-03-14T05:24:00.113Z,5.04
2017-03-14T05:24:40.604Z,5
2017-03-14T05:25:21.068Z,5.04
2017-03-14T05:26:01.548Z,5.04
2017-03-14T05:26:42.055Z,5
2017-03-14T05:27:22.543Z,4.99
2017-03-14T05:28:03.024Z,5
2017-03-14T05:28:43.517Z,4.99
2017-03-14T05:29:23.972Z,5.11
2017-03-14T05:30:04.450Z,5.02
2017-03-14T05:30:44.977Z,5.05
2017-03-14T05:31:25.484Z,5.08
2017-03-14T05:32:05.976Z,5.08
2017-03-14T05:32:46.450Z,5.08
2017-03-14T05:33:26.922Z,5.11
2017-03-14T05:34:07.452Z,5
2017-03-14T05:34:47.889Z,5.07
2017-03-14T05:35:28.343Z,5.1
2017-03-14T05:36:08.837Z,5.08
2017-03-14T05:36:49.301Z,4.97
2017-03-14T05:37:29.759Z,5.12
2017-03-14T05:38:10.256Z,5.08
2017-03-14T05:38:50.740Z,5.07
2017-03-14T05:39:31.216Z,5.08
2017-03-14T05:40:11.705Z,5.08
2017-03-14T05:40:52.150Z,5.04
2017-03-14T05:41:32.639Z,5.1
2017-03-14T05:42:13.105Z,5.08
2017-03-14T05:42:53.624Z,5.12
2017-03-14T05:43:34.080Z,5.08
2017-03-14T05:44:14.574Z,5.07
2017-03-14T05:44:55.056Z,5
2017-03-14T05:45:35.528Z,5.1
2017-03-14T05:46:16.025Z,5.15
2017-03-14T05:46:56.520Z,5.11
2017-03-14T05:47:36.986Z,5.11
2017-03-14T05:48:17.436Z,5.14
2017-03-14T05:48:57.949Z,5.05
2017-03-14T05:49:38.436Z,5.14
2017-03-14T05:50:18.915Z,5.05
2017-03-14T05:50:59.414Z,5.15
2017-03-14T05:51:39.934Z,5.15
2017-03-14T05:52:20.393Z,5.25
2017-03-14T05:53:00.904Z,5.15
2017-03-14T05:53:41.346Z,5.23
2017-03-14T05:54:21.825Z,5.32
2017-03-14T05:55:02.296Z,5.33
2017-03-14T05:55:42.764Z,5.26
2017-03-14T05:56:23.253Z,5.3
2017-03-14T05:57:03.717Z,5.36
2017-03-14T05:57:44.178Z,5.43
2017-03-14T05:58:24.698Z,5.36
2017-03-14T05:59:05.154Z,5.41
2017-03-14T05:59:45.628Z,5.41
2017-03-14T06:00:26.115Z,5.41
2017-03-14T06:01:06.594Z,5.54
2017-03-14T06:01:47.086Z,5.53
2017-03-14T06:02:27.548Z,5.62
2017-03-14T06:03:08.037Z,5.54
2017-03-14T06:03:48.512Z,5.61
2017-03-14T06:04:28.999Z,5.51
2017-03-14T06:05:09.439Z,5.57
2017-03-14T06:05:49.912Z,5.53
2017-03-14T06:06:30.373Z,5.57
2017-03-14T06:07:10.865Z,5.68
2017-03-14T06:07:51.345Z,5.75
2017-03-14T06:08:31.842Z,5.68
2017-03-14T06:09:12.300Z,5.73
2017-03-14T06:09:52.775Z,5.79
2017-03-14T06:10:33.234Z,5.8
2017-03-14T06:11:13.730Z,5.83
2017-03-14T06:11:54.222Z,5.79
2017-03-14T06:12:34.698Z,5.93
2017-03-14T06:13:15.142Z,5.84
2017-03-14T06:13:55.649Z,5.86
2017-03-14T06:14:36.103Z,5.98
2017-03-14T06:15:16.575Z,5.91
2017-03-14T06:15:57.065Z,6.01
2017-03-14T06:16:37.542Z,5.97
2017-03-14T06:17:18.006Z,6.07
2017-03-14T06:17:58.505Z,6.09
2017-03-14T06:18:39.028Z,6.04
2017-03-14T06:19:19.481Z,6.02
2017-03-14T06:19:59.960Z,6.04
2017-03-14T06:20:40.432Z,6.09
2017-03-14T06:21:20.909Z,6.11
2017-03-14T06:22:01.383Z,6.17
2017-03-14T06:22:41.893Z,6.19
2017-03-14T06:23:22.382Z,6.2
2017-03-14T06:24:02.828Z,6.19
2017-03-14T06:24:43.332Z,6.22
2017-03-14T06:25:23.792Z,6.22
2017-03-14T06:26:04.288Z,6.28
2017-03-14T06:26:44.742Z,6.39
2017-03-14T06:27:25.242Z,6.36
2017-03-14T06:28:05.702Z,6.28
2017-03-14T06:28:46.182Z,6.28
2017-03-14T06:29:26.727Z,6.27
2017-03-14T06:30:07.299Z,6.28
2017-03-14T06:30:48.024Z,6.3
2017-03-14T06:31:29.105Z,6.44
2017-03-14T06:32:09.625Z,6.36
2017-03-14T06:32:50.092Z,6.42
2017-03-14T06:33:30.599Z,6.45
2017-03-14T06:34:11.062Z,6.42
2017-03-14T06:34:51.515Z,6.51
2017-03-14T06:35:32.113Z,6.49
2017-03-14T06:36:12.661Z,6.54
2017-03-14T06:36:53.130Z,6.52
2017-03-14T06:37:34.143Z,6.59
2017-03-14T06:38:14.811Z,6.54
2017-03-14T06:38:55.361Z,6.52
2017-03-14T06:39:36.277Z,6.54
2017-03-14T06:40:16.724Z,6.54
2017-03-14T06:40:57.203Z,6.57
2017-03-14T06:41:37.705Z,6.59
2017-03-14T06:42:18.174Z,6.66
2017-03-14T06:42:58.630Z,6.6
2017-03-14T06:43:39.111Z,6.64
2017-03-14T06:44:19.652Z,6.75
2017-03-14T06:45:00.192Z,6.78
2017-03-14T06:45:40.636Z,6.77
2017-03-14T06:46:21.108Z,6.72
2017-03-14T06:47:01.568Z,6.79
2017-03-14T06:47:42.098Z,6.79
2017-03-14T06:48:22.942Z,6.81
2017-03-14T06:49:03.380Z,6.85
2017-03-14T06:49:43.853Z,6.7
2017-03-14T06:50:24.367Z,6.82
2017-03-14T06:51:05.679Z,6.78
2017-03-14T06:51:46.140Z,6.81
2017-03-14T06:52:26.668Z,6.88
2017-03-14T06:53:07.137Z,6.95
2017-03-14T06:53:47.621Z,6.84
2017-03-14T06:54:28.066Z,6.89
2017-03-14T06:55:08.586Z,6.92
2017-03-14T06:55:49.113Z,6.89
2017-03-14T06:56:29.608Z,6.96
2017-03-14T06:57:10.073Z,6.97
2017-03-14T06:57:50.556Z,6.89
2017-03-14T06:58:30.996Z,6.96
2017-03-14T06:59:11.530Z,7.03
2017-03-14T06:59:52.021Z,6.97
2017-03-14T07:00:32.486Z,7
2017-03-14T07:01:12.987Z,7.03
2017-03-14T07:01:53.478Z,7.03
2017-03-14T07:02:33.923Z,7
2017-03-14T07:03:14.397Z,7
2017-03-14T07:03:54.904Z,6.99
2017-03-14T07:04:36.323Z,7.13
2017-03-14T07:05:16.800Z,7.07
2017-03-14T07:05:57.242Z,6.99
2017-03-14T07:06:37.769Z,7.14
2017-03-14T07:07:18.235Z,7.17
2017-03-14T07:07:58.709Z,7.14
2017-03-14T07:08:39.183Z,7.17
2017-03-14T07:09:19.664Z,7.25
2017-03-14T07:10:00.153Z,7.23
2017-03-14T07:10:40.655Z,7.28
2017-03-14T07:11:21.127Z,7.28
2017-03-14T07:12:01.621Z,7.35
2017-03-14T07:12:42.112Z,7.33
2017-03-14T07:13:22.574Z,7.28
2017-03-14T07:14:03.054Z,7.24
2017-03-14T07:14:43.564Z,7.28
2017-03-14T07:15:24.066Z,7.23
2017-03-14T07:16:04.563Z,7.28
2017-03-14T07:16:45.307Z,7.39
2017-03-14T07:17:25.775Z,7.4
2017-03-14T07:18:06.235Z,7.4
2017-03-14T07:18:46.686Z,7.36
2017-03-14T07:19:27.209Z,7.35
2017-03-14T07:20:07.684Z,7.42
2017-03-14T07:20:48.176Z,7.36
2017-03-14T07:21:28.672Z,7.4
2017-03-14T07:22:09.140Z,7.4
2017-03-14T07:22:49.733Z,7.38
2017-03-14T07:23:30.247Z,7.38
2017-03-14T07:24:10.756Z,7.45
2017-03-14T07:24:51.224Z,7.45
2017-03-14T07:25:31.676Z,7.47
2017-03-14T07:26:12.165Z,7.51
2017-03-14T07:26:53.355Z,7.51
2017-03-14T07:27:33.763Z,7.61
2017-03-14T07:28:14.263Z,7.66
2017-03-14T07:28:54.941Z,7.66
2017-03-14T07:29:35.424Z,7.66
2017-03-14T07:30:15.935Z,7.7
2017-03-14T07:30:56.387Z,7.75
2017-03-14T07:31:37.164Z,7.72
2017-03-14T07:32:17.673Z,7.82
2017-03-14T07:32:58.159Z,7.77
2017-03-14T07:33:38.646Z,7.87
2017-03-14T07:34:19.172Z,7.82
2017-03-14T07:34:59.642Z,7.83
2017-03-14T07:35:40.135Z,7.91
2017-03-14T07:36:20.614Z,7.91
2017-03-14T07:37:01.089Z,7.93
2017-03-14T07:37:41.557Z,7.87
2017-03-14T07:38:22.054Z,7.9
2017-03-14T07:39:02.586Z,7.94
2017-03-14T07:39:43.036Z,8.03
2017-03-14T07:40:23.551Z,8
2017-03-14T07:41:04.069Z,8
2017-03-14T07:41:44.737Z,7.97
2017-03-14T07:42:25.225Z,8.08
2017-03-14T07:43:05.702Z,8.1
2017-03-14T07:43:46.247Z,8.16
2017-03-14T07:44:26.789Z,8.15
2017-03-14T07:45:07.331Z,8.18
2017-03-14T07:45:48.107Z,8.19
2017-03-14T07:46:33.493Z,8.19
2017-03-14T07:47:14.257Z,8.27
2017-03-14T07:47:54.807Z,8.3
2017-03-14T07:48:35.286Z,8.26
2017-03-14T07:49:15.790Z,8.27
2017-03-14T07:49:56.245Z,8.24
2017-03-14T07:50:36.724Z,8.37
2017-03-14T07:51:17.211Z,8.31
2017-03-14T07:51:57.705Z,8.33
2017-03-14T07:52:38.193Z,8.33
2017-03-14T07:53:18.633Z,8.31
2017-03-14T07:53:59.109Z,8.31
2017-03-14T07:54:39.567Z,8.44
2017-03-14T07:55:20.057Z,8.34
2017-03-14T07:56:00.592Z,8.28
2017-03-14T07:56:41.143Z,8.37
2017-03-14T07:57:21.723Z,8.38
2017-03-14T07:58:04.631Z,8.41
2017-03-14T07:58:45.232Z,8.46
2017-03-14T07:59:25.726Z,8.41
2017-03-14T08:00:06.318Z,8.41
2017-03-14T08:00:46.906Z,8.45
2017-03-14T08:01:27.489Z,8.51
2017-03-14T08:02:07.950Z,8.51
2017-03-14T08:02:48.419Z,8.52
2017-03-14T08:03:28.869Z,8.48
2017-03-14T08:04:09.377Z,8.48
2017-03-14T08:04:49.851Z,8.53
2017-03-14T08:05:30.466Z,8.55
2017-03-14T08:06:11.028Z,8.55
2017-03-14T08:06:51.594Z,8.6
2017-03-14T08:07:32.082Z,8.6
2017-03-14T08:08:12.586Z,8.58
2017-03-14T08:08:53.047Z,8.66
2017-03-14T08:09:33.666Z,8.55
2017-03-14T08:10:14.185Z,8.69
2017-03-14T08:10:54.694Z,8.73
2017-03-14T08:11:36.761Z,8.69
2017-03-14T08:12:24.752Z,8.71
2017-03-14T08:13:09.928Z,8.73
2017-03-14T08:13:58.893Z,8.66
2017-03-14T08:14:45.218Z,8.69
2017-03-14T08:15:29.533Z,8.7
2017-03-14T08:16:10.101Z,8.56
2017-03-14T08:16:50.596Z,8.61
2017-03-14T08:17:31.416Z,8.58
2017-03-14T08:18:12.070Z,8.63
2017-03-14T08:18:52.633Z,8.52
2017-03-14T08:19:33.171Z,8.53
2017-03-14T08:20:13.685Z,8.52
2017-03-14T08:20:54.163Z,8.56
2017-03-14T08:22:49.718Z,8.52
2017-03-14T08:23:31.302Z,8.55
2017-03-14T08:25:11.235Z,8.52
2017-03-14T08:25:51.567Z,8.53
2017-03-14T08:26:32.032Z,8.61
2017-03-14T08:27:12.544Z,8.55
2017-03-14T08:27:53.984Z,8.64
2017-03-14T08:28:34.478Z,8.61
2017-03-14T08:29:14.992Z,8.66
2017-03-14T08:29:55.500Z,8.64
2017-03-14T08:30:35.971Z,8.69
2017-03-14T08:31:16.480Z,8.74
2017-03-14T08:31:56.929Z,8.63
2017-03-14T08:32:37.388Z,8.67
2017-03-14T08:33:18.082Z,8.71
2017-03-14T08:33:58.902Z,8.73
2017-03-14T08:34:39.400Z,8.71
2017-03-14T08:35:19.922Z,8.79
2017-03-14T08:36:00.359Z,8.74
2017-03-14T08:36:41.075Z,8.81
2017-03-14T08:37:21.556Z,8.85
2017-03-14T08:38:02.002Z,8.84
2017-03-14T08:38:42.673Z,8.78
2017-03-14T08:39:23.162Z,8.82
2017-03-14T08:40:03.625Z,8.82
2017-03-14T08:40:44.120Z,8.91
2017-03-14T08:41:25.109Z,8.85
2017-03-14T08:42:05.973Z,8.84
2017-03-14T08:42:46.468Z,8.91
2017-03-14T08:43:26.942Z,8.91
2017-03-14T08:44:07.397Z,8.87
2017-03-14T08:44:47.902Z,8.89
2017-03-14T08:45:28.674Z,8.92
2017-03-14T08:46:09.163Z,8.92
2017-03-14T08:46:59.053Z,9.02
2017-03-14T08:47:44.619Z,9.1
2017-03-14T08:48:25.094Z,9.06
2017-03-14T08:49:05.639Z,9.11
2017-03-14T08:49:46.207Z,9.14
2017-03-14T08:50:26.666Z,9.19
2017-03-14T08:51:07.225Z,9.23
2017-03-14T08:51:47.833Z,9.25
2017-03-14T08:52:28.397Z,9.25
2017-03-14T08:53:08.955Z,9.25
2017-03-14T08:53:49.408Z,9.31
2017-03-14T08:54:30.387Z,9.39
2017-03-14T08:55:11.415Z,9.4
2017-03-14T08:55:56.716Z,9.39
2017-03-14T08:56:38.956Z,9.48
2017-03-14T08:57:19.606Z,9.54
2017-03-14T08:58:00.119Z,9.58
2017-03-14T08:58:40.648Z,9.54
2017-03-14T08:59:21.664Z,9.69
2017-03-14T09:00:02.152Z,9.65
2017-03-14T09:02:01.573Z,9.79
2017-03-14T09:02:42.087Z,9.84
2017-03-14T09:03:22.822Z,9.92
2017-03-14T09:04:03.362Z,9.95
2017-03-14T09:04:43.866Z,10.01
2017-03-14T09:05:24.752Z,10.04